sensor_id;sensor_type;location;lat;lon;timestamp;P1;durP1;ratioP1;P2;durP2;ratioP2
18146;SDS011;9199;48.832;9.182;2024-03-25T00:00:51;5.22;;;1.50;;
18146;SDS011;9199;48.832;9.182;2024-03-25T00:03:17;4.95;;;1.73;;
18146;SDS011;9199;48.832;9.182;2024-03-25T00:05:44;5.00;;;1.50;;
18146;SDS011;9199;48.832;9.182;2024-03-25T00:08:11;4.15;;;1.30;;
18146;SDS011;9199;48.832;9.182;2024-03-25T00:10:37;4.63;;;1.50;;
18146;SDS011;9199;48.832;9.182;2024-03-25T00:13:04;4.32;;;1.60;;
18146;SDS011;9199;48.832;9.182;2024-03-25T00:15:30;5.43;;;1.73;;
18146;SDS011;9199;48.832;9.182;2024-03-25T00:17:58;4.95;;;1.60;;
18146;SDS011;9199;48.832;9.182;2024-03-25T00:20:23;4.72;;;1.55;;
18146;SDS011;9199;48.832;9.182;2024-03-25T00:22:51;5.47;;;1.90;;
18146;SDS011;9199;48.832;9.182;2024-03-25T00:25:17;5.20;;;1.90;;
18146;SDS011;9199;48.832;9.182;2024-03-25T00:27:44;5.30;;;2.03;;
18146;SDS011;9199;48.832;9.182;2024-03-25T00:30:11;5.63;;;1.90;;
18146;SDS011;9199;48.832;9.182;2024-03-25T00:32:39;7.60;;;1.98;;
18146;SDS011;9199;48.832;9.182;2024-03-25T00:35:07;4.67;;;1.67;;
18146;SDS011;9199;48.832;9.182;2024-03-25T00:37:34;7.00;;;1.80;;
18146;SDS011;9199;48.832;9.182;2024-03-25T00:40:00;5.35;;;1.50;;
18146;SDS011;9199;48.832;9.182;2024-03-25T00:42:27;4.97;;;1.90;;
18146;SDS011;9199;48.832;9.182;2024-03-25T00:44:52;6.03;;;1.80;;
18146;SDS011;9199;48.832;9.182;2024-03-25T00:47:19;5.45;;;1.80;;
18146;SDS011;9199;48.832;9.182;2024-03-25T00:49:45;4.72;;;1.80;;
18146;SDS011;9199;48.832;9.182;2024-03-25T00:52:13;6.60;;;2.20;;
18146;SDS011;9199;48.832;9.182;2024-03-25T00:54:39;5.65;;;2.10;;
18146;SDS011;9199;48.832;9.182;2024-03-25T00:57:06;6.32;;;1.80;;
18146;SDS011;9199;48.832;9.182;2024-03-25T00:59:33;5.95;;;1.80;;
18146;SDS011;9199;48.832;9.182;2024-03-25T01:02:00;5.15;;;1.80;;
18146;SDS011;9199;48.832;9.182;2024-03-25T01:04:26;4.70;;;1.57;;
18146;SDS011;9199;48.832;9.182;2024-03-25T01:06:54;5.15;;;1.50;;
18146;SDS011;9199;48.832;9.182;2024-03-25T01:09:21;8.98;;;1.83;;
18146;SDS011;9199;48.832;9.182;2024-03-25T01:11:50;5.13;;;1.73;;
18146;SDS011;9199;48.832;9.182;2024-03-25T01:14:16;4.10;;;1.57;;
18146;SDS011;9199;48.832;9.182;2024-03-25T01:16:42;7.82;;;2.38;;
18146;SDS011;9199;48.832;9.182;2024-03-25T01:19:08;4.85;;;1.80;;
18146;SDS011;9199;48.832;9.182;2024-03-25T01:21:35;5.13;;;1.80;;
18146;SDS011;9199;48.832;9.182;2024-03-25T01:24:01;4.78;;;1.52;;
18146;SDS011;9199;48.832;9.182;2024-03-25T01:26:29;5.82;;;2.10;;
18146;SDS011;9199;48.832;9.182;2024-03-25T01:28:55;4.85;;;1.60;;
18146;SDS011;9199;48.832;9.182;2024-03-25T01:31:22;4.70;;;1.90;;
18146;SDS011;9199;48.832;9.182;2024-03-25T01:33:48;5.82;;;2.03;;
18146;SDS011;9199;48.832;9.182;2024-03-25T01:36:16;7.10;;;1.80;;
18146;SDS011;9199;48.832;9.182;2024-03-25T01:38:42;4.93;;;1.60;;
18146;SDS011;9199;48.832;9.182;2024-03-25T01:41:09;4.77;;;1.70;;
18146;SDS011;9199;48.832;9.182;2024-03-25T01:43:38;5.95;;;1.85;;
18146;SDS011;9199;48.832;9.182;2024-03-25T01:46:05;7.50;;;2.17;;
18146;SDS011;9199;48.832;9.182;2024-03-25T01:48:31;6.07;;;1.83;;
18146;SDS011;9199;48.832;9.182;2024-03-25T01:50:59;6.22;;;1.92;;
18146;SDS011;9199;48.832;9.182;2024-03-25T01:53:26;6.60;;;2.20;;
18146;SDS011;9199;48.832;9.182;2024-03-25T01:55:57;7.35;;;2.10;;
18146;SDS011;9199;48.832;9.182;2024-03-25T01:58:24;8.07;;;2.40;;
18146;SDS011;9199;48.832;9.182;2024-03-25T02:00:53;7.80;;;2.47;;
18146;SDS011;9199;48.832;9.182;2024-03-25T02:03:20;7.00;;;2.00;;
18146;SDS011;9199;48.832;9.182;2024-03-25T02:05:52;5.50;;;1.87;;
18146;SDS011;9199;48.832;9.182;2024-03-25T02:08:22;5.85;;;2.00;;
18146;SDS011;9199;48.832;9.182;2024-03-25T02:10:50;11.38;;;2.30;;
18146;SDS011;9199;48.832;9.182;2024-03-25T02:13:16;6.32;;;2.10;;
18146;SDS011;9199;48.832;9.182;2024-03-25T02:18:34;6.43;;;1.97;;
18146;SDS011;9199;48.832;9.182;2024-03-25T02:21:09;4.70;;;1.55;;
18146;SDS011;9199;48.832;9.182;2024-03-25T02:23:36;7.65;;;2.10;;
18146;SDS011;9199;48.832;9.182;2024-03-25T02:26:06;5.03;;;2.03;;
18146;SDS011;9199;48.832;9.182;2024-03-25T02:28:32;7.35;;;2.00;;
18146;SDS011;9199;48.832;9.182;2024-03-25T02:30:59;6.47;;;1.93;;
18146;SDS011;9199;48.832;9.182;2024-03-25T02:33:24;6.20;;;2.22;;
18146;SDS011;9199;48.832;9.182;2024-03-25T02:35:51;7.47;;;1.98;;
18146;SDS011;9199;48.832;9.182;2024-03-25T02:38:17;5.60;;;2.00;;
18146;SDS011;9199;48.832;9.182;2024-03-25T02:40:45;4.60;;;2.07;;
18146;SDS011;9199;48.832;9.182;2024-03-25T02:43:12;6.00;;;2.10;;
18146;SDS011;9199;48.832;9.182;2024-03-25T02:45:40;4.25;;;1.98;;
18146;SDS011;9199;48.832;9.182;2024-03-25T02:48:06;5.40;;;2.00;;
18146;SDS011;9199;48.832;9.182;2024-03-25T02:50:33;8.07;;;2.00;;
18146;SDS011;9199;48.832;9.182;2024-03-25T02:52:59;5.57;;;2.30;;
18146;SDS011;9199;48.832;9.182;2024-03-25T02:55:25;5.55;;;2.00;;
18146;SDS011;9199;48.832;9.182;2024-03-25T02:57:51;6.90;;;2.37;;
18146;SDS011;9199;48.832;9.182;2024-03-25T03:00:19;4.55;;;2.03;;
18146;SDS011;9199;48.832;9.182;2024-03-25T03:02:45;5.70;;;2.00;;
18146;SDS011;9199;48.832;9.182;2024-03-25T03:05:12;6.00;;;2.10;;
18146;SDS011;9199;48.832;9.182;2024-03-25T03:07:38;6.63;;;2.20;;
18146;SDS011;9199;48.832;9.182;2024-03-25T03:10:05;4.60;;;2.00;;
18146;SDS011;9199;48.832;9.182;2024-03-25T03:12:31;6.65;;;2.38;;
18146;SDS011;9199;48.832;9.182;2024-03-25T03:14:58;6.15;;;2.05;;
18146;SDS011;9199;48.832;9.182;2024-03-25T03:17:25;6.80;;;2.33;;
18146;SDS011;9199;48.832;9.182;2024-03-25T03:19:52;8.70;;;2.58;;
18146;SDS011;9199;48.832;9.182;2024-03-25T03:22:19;7.78;;;2.35;;
18146;SDS011;9199;48.832;9.182;2024-03-25T03:24:45;6.30;;;2.70;;
18146;SDS011;9199;48.832;9.182;2024-03-25T03:27:12;8.27;;;2.65;;
18146;SDS011;9199;48.832;9.182;2024-03-25T03:29:38;6.78;;;2.72;;
18146;SDS011;9199;48.832;9.182;2024-03-25T03:32:04;6.32;;;2.60;;
18146;SDS011;9199;48.832;9.182;2024-03-25T03:34:32;8.52;;;2.67;;
18146;SDS011;9199;48.832;9.182;2024-03-25T03:36:59;6.97;;;2.87;;
18146;SDS011;9199;48.832;9.182;2024-03-25T03:39:24;10.23;;;3.28;;
18146;SDS011;9199;48.832;9.182;2024-03-25T03:41:51;9.15;;;3.28;;
18146;SDS011;9199;48.832;9.182;2024-03-25T03:44:17;5.93;;;2.30;;
18146;SDS011;9199;48.832;9.182;2024-03-25T03:46:44;6.90;;;2.80;;
18146;SDS011;9199;48.832;9.182;2024-03-25T03:49:10;7.95;;;2.80;;
18146;SDS011;9199;48.832;9.182;2024-03-25T03:51:38;6.38;;;2.63;;
18146;SDS011;9199;48.832;9.182;2024-03-25T03:54:04;5.47;;;2.57;;
18146;SDS011;9199;48.832;9.182;2024-03-25T03:56:31;8.05;;;2.45;;
18146;SDS011;9199;48.832;9.182;2024-03-25T03:58:56;11.77;;;3.05;;
18146;SDS011;9199;48.832;9.182;2024-03-25T04:01:23;8.15;;;2.88;;
18146;SDS011;9199;48.832;9.182;2024-03-25T04:03:49;7.73;;;2.90;;
18146;SDS011;9199;48.832;9.182;2024-03-25T04:06:16;6.88;;;2.60;;
18146;SDS011;9199;48.832;9.182;2024-03-25T04:08:43;5.90;;;2.70;;
18146;SDS011;9199;48.832;9.182;2024-03-25T04:11:10;8.25;;;2.88;;
18146;SDS011;9199;48.832;9.182;2024-03-25T04:13:36;4.80;;;2.43;;
18146;SDS011;9199;48.832;9.182;2024-03-25T04:16:03;7.35;;;2.20;;
18146;SDS011;9199;48.832;9.182;2024-03-25T04:18:30;8.57;;;2.55;;
18146;SDS011;9199;48.832;9.182;2024-03-25T04:20:58;8.10;;;2.60;;
18146;SDS011;9199;48.832;9.182;2024-03-25T04:23:24;6.68;;;2.20;;
18146;SDS011;9199;48.832;9.182;2024-03-25T04:25:52;7.35;;;2.80;;
18146;SDS011;9199;48.832;9.182;2024-03-25T04:28:18;8.32;;;2.85;;
18146;SDS011;9199;48.832;9.182;2024-03-25T04:30:50;6.75;;;2.47;;
18146;SDS011;9199;48.832;9.182;2024-03-25T04:33:17;6.50;;;2.60;;
18146;SDS011;9199;48.832;9.182;2024-03-25T04:35:43;7.90;;;2.85;;
18146;SDS011;9199;48.832;9.182;2024-03-25T04:38:10;6.65;;;2.70;;
18146;SDS011;9199;48.832;9.182;2024-03-25T04:40:36;8.95;;;2.55;;
18146;SDS011;9199;48.832;9.182;2024-03-25T04:43:03;8.02;;;2.85;;
18146;SDS011;9199;48.832;9.182;2024-03-25T04:45:29;8.17;;;2.90;;
18146;SDS011;9199;48.832;9.182;2024-03-25T04:47:55;6.30;;;2.40;;
18146;SDS011;9199;48.832;9.182;2024-03-25T04:50:21;7.30;;;2.83;;
18146;SDS011;9199;48.832;9.182;2024-03-25T04:52:47;8.20;;;2.83;;
18146;SDS011;9199;48.832;9.182;2024-03-25T04:55:13;7.13;;;2.60;;
18146;SDS011;9199;48.832;9.182;2024-03-25T04:57:39;8.77;;;2.80;;
18146;SDS011;9199;48.832;9.182;2024-03-25T05:00:07;8.95;;;2.60;;
18146;SDS011;9199;48.832;9.182;2024-03-25T05:02:35;6.33;;;2.57;;
18146;SDS011;9199;48.832;9.182;2024-03-25T05:05:00;7.43;;;2.55;;
18146;SDS011;9199;48.832;9.182;2024-03-25T05:07:26;6.80;;;2.35;;
18146;SDS011;9199;48.832;9.182;2024-03-25T05:09:52;6.63;;;2.70;;
18146;SDS011;9199;48.832;9.182;2024-03-25T05:12:18;6.37;;;2.53;;
18146;SDS011;9199;48.832;9.182;2024-03-25T05:14:44;10.27;;;2.80;;
18146;SDS011;9199;48.832;9.182;2024-03-25T05:17:11;6.70;;;2.67;;
18146;SDS011;9199;48.832;9.182;2024-03-25T05:19:37;6.57;;;2.63;;
18146;SDS011;9199;48.832;9.182;2024-03-25T05:22:03;9.27;;;2.72;;
18146;SDS011;9199;48.832;9.182;2024-03-25T05:24:29;10.63;;;2.88;;
18146;SDS011;9199;48.832;9.182;2024-03-25T05:26:55;5.40;;;2.50;;
18146;SDS011;9199;48.832;9.182;2024-03-25T05:29:21;7.63;;;3.00;;
18146;SDS011;9199;48.832;9.182;2024-03-25T05:31:55;7.22;;;2.65;;
18146;SDS011;9199;48.832;9.182;2024-03-25T05:34:24;6.95;;;2.80;;
18146;SDS011;9199;48.832;9.182;2024-03-25T05:36:50;7.60;;;2.90;;
18146;SDS011;9199;48.832;9.182;2024-03-25T05:39:16;7.03;;;2.50;;
18146;SDS011;9199;48.832;9.182;2024-03-25T05:41:42;8.70;;;3.03;;
18146;SDS011;9199;48.832;9.182;2024-03-25T05:44:08;8.77;;;2.87;;
18146;SDS011;9199;48.832;9.182;2024-03-25T05:46:34;7.07;;;2.80;;
18146;SDS011;9199;48.832;9.182;2024-03-25T05:49:01;6.57;;;2.90;;
18146;SDS011;9199;48.832;9.182;2024-03-25T05:51:29;7.75;;;3.05;;
18146;SDS011;9199;48.832;9.182;2024-03-25T05:53:55;7.05;;;2.45;;
18146;SDS011;9199;48.832;9.182;2024-03-25T05:56:21;10.17;;;3.03;;
18146;SDS011;9199;48.832;9.182;2024-03-25T05:58:47;8.60;;;3.30;;
18146;SDS011;9199;48.832;9.182;2024-03-25T06:01:13;9.13;;;3.53;;
18146;SDS011;9199;48.832;9.182;2024-03-25T06:03:39;10.77;;;2.93;;
18146;SDS011;9199;48.832;9.182;2024-03-25T06:06:05;7.78;;;2.97;;
18146;SDS011;9199;48.832;9.182;2024-03-25T06:08:32;9.77;;;3.30;;
18146;SDS011;9199;48.832;9.182;2024-03-25T06:11:00;7.40;;;2.78;;
18146;SDS011;9199;48.832;9.182;2024-03-25T06:13:26;7.67;;;3.10;;
18146;SDS011;9199;48.832;9.182;2024-03-25T06:15:52;11.68;;;3.10;;
18146;SDS011;9199;48.832;9.182;2024-03-25T06:18:18;6.97;;;2.70;;
18146;SDS011;9199;48.832;9.182;2024-03-25T06:20:44;10.02;;;3.20;;
18146;SDS011;9199;48.832;9.182;2024-03-25T06:23:10;8.07;;;3.13;;
18146;SDS011;9199;48.832;9.182;2024-03-25T06:25:37;11.57;;;3.33;;
18146;SDS011;9199;48.832;9.182;2024-03-25T06:28:03;8.88;;;3.10;;
18146;SDS011;9199;48.832;9.182;2024-03-25T06:30:30;9.07;;;3.00;;
18146;SDS011;9199;48.832;9.182;2024-03-25T06:33:16;8.67;;;3.27;;
18146;SDS011;9199;48.832;9.182;2024-03-25T06:36:03;7.82;;;2.80;;
18146;SDS011;9199;48.832;9.182;2024-03-25T06:38:30;7.95;;;3.00;;
18146;SDS011;9199;48.832;9.182;2024-03-25T06:40:58;8.75;;;3.33;;
18146;SDS011;9199;48.832;9.182;2024-03-25T06:43:23;10.07;;;3.33;;
18146;SDS011;9199;48.832;9.182;2024-03-25T06:45:49;7.93;;;3.60;;
18146;SDS011;9199;48.832;9.182;2024-03-25T06:48:15;8.50;;;3.70;;
18146;SDS011;9199;48.832;9.182;2024-03-25T06:50:41;8.50;;;3.70;;
18146;SDS011;9199;48.832;9.182;2024-03-25T06:53:16;8.32;;;3.30;;
18146;SDS011;9199;48.832;9.182;2024-03-25T06:55:50;7.00;;;3.40;;
18146;SDS011;9199;48.832;9.182;2024-03-25T06:58:17;7.93;;;3.00;;
18146;SDS011;9199;48.832;9.182;2024-03-25T07:00:46;7.37;;;2.87;;
18146;SDS011;9199;48.832;9.182;2024-03-25T07:03:12;7.47;;;2.40;;
18146;SDS011;9199;48.832;9.182;2024-03-25T07:05:38;6.72;;;2.50;;
18146;SDS011;9199;48.832;9.182;2024-03-25T07:08:04;7.67;;;2.50;;
18146;SDS011;9199;48.832;9.182;2024-03-25T07:10:30;9.27;;;2.53;;
18146;SDS011;9199;48.832;9.182;2024-03-25T07:12:56;7.05;;;2.17;;
18146;SDS011;9199;48.832;9.182;2024-03-25T07:15:23;7.90;;;2.63;;
18146;SDS011;9199;48.832;9.182;2024-03-25T07:17:49;6.70;;;2.20;;
18146;SDS011;9199;48.832;9.182;2024-03-25T07:20:15;8.30;;;2.30;;
18146;SDS011;9199;48.832;9.182;2024-03-25T07:22:41;7.82;;;2.78;;
18146;SDS011;9199;48.832;9.182;2024-03-25T07:25:07;5.30;;;2.53;;
18146;SDS011;9199;48.832;9.182;2024-03-25T07:27:33;7.83;;;2.50;;
18146;SDS011;9199;48.832;9.182;2024-03-25T07:29:59;7.18;;;2.33;;
18146;SDS011;9199;48.832;9.182;2024-03-25T07:32:26;7.93;;;2.60;;
18146;SDS011;9199;48.832;9.182;2024-03-25T07:34:52;6.40;;;2.30;;
18146;SDS011;9199;48.832;9.182;2024-03-25T07:37:18;9.27;;;2.45;;
18146;SDS011;9199;48.832;9.182;2024-03-25T07:39:45;8.45;;;2.88;;
18146;SDS011;9199;48.832;9.182;2024-03-25T07:42:11;5.43;;;1.80;;
18146;SDS011;9199;48.832;9.182;2024-03-25T07:44:37;7.63;;;2.40;;
18146;SDS011;9199;48.832;9.182;2024-03-25T07:47:03;6.72;;;2.30;;
18146;SDS011;9199;48.832;9.182;2024-03-25T07:49:30;9.40;;;2.40;;
18146;SDS011;9199;48.832;9.182;2024-03-25T07:51:56;8.03;;;2.20;;
18146;SDS011;9199;48.832;9.182;2024-03-25T07:54:22;8.65;;;2.50;;
18146;SDS011;9199;48.832;9.182;2024-03-25T07:56:48;9.65;;;2.08;;
18146;SDS011;9199;48.832;9.182;2024-03-25T07:59:14;6.25;;;2.00;;
18146;SDS011;9199;48.832;9.182;2024-03-25T08:01:40;6.30;;;2.40;;
18146;SDS011;9199;48.832;9.182;2024-03-25T08:04:06;7.70;;;2.40;;
18146;SDS011;9199;48.832;9.182;2024-03-25T08:06:33;7.90;;;2.10;;
18146;SDS011;9199;48.832;9.182;2024-03-25T08:08:59;6.70;;;2.00;;
18146;SDS011;9199;48.832;9.182;2024-03-25T08:11:25;7.10;;;2.08;;
18146;SDS011;9199;48.832;9.182;2024-03-25T08:13:51;6.80;;;1.80;;
18146;SDS011;9199;48.832;9.182;2024-03-25T08:16:17;8.60;;;2.10;;
18146;SDS011;9199;48.832;9.182;2024-03-25T08:18:42;6.32;;;1.77;;
18146;SDS011;9199;48.832;9.182;2024-03-25T08:21:08;5.20;;;1.60;;
18146;SDS011;9199;48.832;9.182;2024-03-25T08:23:35;5.73;;;1.63;;
18146;SDS011;9199;48.832;9.182;2024-03-25T08:26:03;5.28;;;2.03;;
18146;SDS011;9199;48.832;9.182;2024-03-25T08:28:29;6.75;;;1.77;;
18146;SDS011;9199;48.832;9.182;2024-03-25T08:30:55;6.13;;;1.63;;
18146;SDS011;9199;48.832;9.182;2024-03-25T08:33:21;5.70;;;1.80;;
18146;SDS011;9199;48.832;9.182;2024-03-25T08:35:46;5.40;;;1.85;;
18146;SDS011;9199;48.832;9.182;2024-03-25T08:38:12;10.30;;;1.80;;
18146;SDS011;9199;48.832;9.182;2024-03-25T08:40:39;5.78;;;1.83;;
18146;SDS011;9199;48.832;9.182;2024-03-25T08:43:05;5.47;;;1.90;;
18146;SDS011;9199;48.832;9.182;2024-03-25T08:45:31;6.18;;;1.60;;
18146;SDS011;9199;48.832;9.182;2024-03-25T08:47:57;5.27;;;1.63;;
18146;SDS011;9199;48.832;9.182;2024-03-25T08:50:23;5.30;;;1.50;;
18146;SDS011;9199;48.832;9.182;2024-03-25T08:52:49;4.78;;;1.95;;
18146;SDS011;9199;48.832;9.182;2024-03-25T08:55:15;5.27;;;1.50;;
18146;SDS011;9199;48.832;9.182;2024-03-25T08:57:42;5.13;;;1.60;;
18146;SDS011;9199;48.832;9.182;2024-03-25T09:00:08;4.15;;;1.30;;
18146;SDS011;9199;48.832;9.182;2024-03-25T09:02:35;5.33;;;1.53;;
18146;SDS011;9199;48.832;9.182;2024-03-25T09:05:01;4.45;;;1.27;;
18146;SDS011;9199;48.832;9.182;2024-03-25T09:07:28;4.75;;;1.33;;
18146;SDS011;9199;48.832;9.182;2024-03-25T09:09:54;4.65;;;1.48;;
18146;SDS011;9199;48.832;9.182;2024-03-25T09:12:38;4.97;;;1.30;;
18146;SDS011;9199;48.832;9.182;2024-03-25T09:15:06;6.00;;;1.50;;
18146;SDS011;9199;48.832;9.182;2024-03-25T09:17:32;4.25;;;1.23;;
18146;SDS011;9199;48.832;9.182;2024-03-25T09:19:58;4.78;;;1.30;;
18146;SDS011;9199;48.832;9.182;2024-03-25T09:22:24;4.90;;;1.20;;
18146;SDS011;9199;48.832;9.182;2024-03-25T09:24:49;4.40;;;1.13;;
18146;SDS011;9199;48.832;9.182;2024-03-25T09:27:15;5.13;;;1.38;;
18146;SDS011;9199;48.832;9.182;2024-03-25T09:29:41;4.13;;;1.30;;
18146;SDS011;9199;48.832;9.182;2024-03-25T09:32:08;5.93;;;1.55;;
18146;SDS011;9199;48.832;9.182;2024-03-25T09:34:35;5.03;;;1.50;;
18146;SDS011;9199;48.832;9.182;2024-03-25T09:37:01;5.30;;;1.40;;
18146;SDS011;9199;48.832;9.182;2024-03-25T09:39:26;6.63;;;1.30;;
18146;SDS011;9199;48.832;9.182;2024-03-25T09:41:54;5.90;;;1.80;;
18146;SDS011;9199;48.832;9.182;2024-03-25T09:44:21;6.82;;;1.83;;
18146;SDS011;9199;48.832;9.182;2024-03-25T09:46:51;4.73;;;1.40;;
18146;SDS011;9199;48.832;9.182;2024-03-25T09:49:21;4.68;;;1.40;;
18146;SDS011;9199;48.832;9.182;2024-03-25T09:51:49;9.40;;;1.60;;
18146;SDS011;9199;48.832;9.182;2024-03-25T09:54:15;4.75;;;1.40;;
18146;SDS011;9199;48.832;9.182;2024-03-25T09:56:40;5.00;;;1.40;;
18146;SDS011;9199;48.832;9.182;2024-03-25T09:59:10;4.82;;;1.30;;
18146;SDS011;9199;48.832;9.182;2024-03-25T10:01:36;5.70;;;1.40;;
18146;SDS011;9199;48.832;9.182;2024-03-25T10:04:02;4.45;;;1.40;;
18146;SDS011;9199;48.832;9.182;2024-03-25T10:06:30;5.80;;;1.45;;
18146;SDS011;9199;48.832;9.182;2024-03-25T10:08:57;4.60;;;1.20;;
18146;SDS011;9199;48.832;9.182;2024-03-25T10:11:25;4.05;;;1.20;;
18146;SDS011;9199;48.832;9.182;2024-03-25T10:13:51;5.22;;;1.20;;
18146;SDS011;9199;48.832;9.182;2024-03-25T10:16:17;4.25;;;1.20;;
18146;SDS011;9199;48.832;9.182;2024-03-25T10:18:43;5.87;;;1.27;;
18146;SDS011;9199;48.832;9.182;2024-03-25T10:21:09;6.53;;;1.33;;
18146;SDS011;9199;48.832;9.182;2024-03-25T10:23:39;6.70;;;1.27;;
18146;SDS011;9199;48.832;9.182;2024-03-25T10:26:05;4.00;;;1.25;;
18146;SDS011;9199;48.832;9.182;2024-03-25T10:28:31;3.30;;;1.20;;
18146;SDS011;9199;48.832;9.182;2024-03-25T10:31:02;3.53;;;1.25;;
18146;SDS011;9199;48.832;9.182;2024-03-25T10:33:29;3.85;;;1.00;;
18146;SDS011;9199;48.832;9.182;2024-03-25T10:35:57;4.32;;;1.30;;
18146;SDS011;9199;48.832;9.182;2024-03-25T10:38:29;5.90;;;1.20;;
18146;SDS011;9199;48.832;9.182;2024-03-25T10:40:57;2.97;;;0.90;;
18146;SDS011;9199;48.832;9.182;2024-03-25T10:43:24;4.13;;;0.90;;
18146;SDS011;9199;48.832;9.182;2024-03-25T10:45:54;4.35;;;1.10;;
18146;SDS011;9199;48.832;9.182;2024-03-25T10:48:24;4.00;;;1.20;;
18146;SDS011;9199;48.832;9.182;2024-03-25T10:50:53;4.47;;;1.00;;
18146;SDS011;9199;48.832;9.182;2024-03-25T10:53:21;4.30;;;0.90;;
18146;SDS011;9199;48.832;9.182;2024-03-25T10:55:48;4.35;;;1.10;;
18146;SDS011;9199;48.832;9.182;2024-03-25T10:58:23;4.05;;;1.00;;
18146;SDS011;9199;48.832;9.182;2024-03-25T11:00:50;4.20;;;1.10;;
18146;SDS011;9199;48.832;9.182;2024-03-25T11:03:18;3.83;;;1.00;;
18146;SDS011;9199;48.832;9.182;2024-03-25T11:05:44;4.70;;;1.20;;
18146;SDS011;9199;48.832;9.182;2024-03-25T11:08:11;3.65;;;1.00;;
18146;SDS011;9199;48.832;9.182;2024-03-25T11:10:39;4.97;;;1.17;;
18146;SDS011;9199;48.832;9.182;2024-03-25T11:13:11;4.85;;;1.40;;
18146;SDS011;9199;48.832;9.182;2024-03-25T11:15:41;5.07;;;1.20;;
18146;SDS011;9199;48.832;9.182;2024-03-25T11:18:11;4.80;;;1.30;;
18146;SDS011;9199;48.832;9.182;2024-03-25T11:20:38;3.30;;;1.10;;
18146;SDS011;9199;48.832;9.182;2024-03-25T11:23:07;4.25;;;1.40;;
18146;SDS011;9199;48.832;9.182;2024-03-25T11:25:34;3.53;;;1.10;;
18146;SDS011;9199;48.832;9.182;2024-03-25T11:28:00;3.97;;;1.50;;
18146;SDS011;9199;48.832;9.182;2024-03-25T11:30:26;5.13;;;1.15;;
18146;SDS011;9199;48.832;9.182;2024-03-25T11:32:53;5.13;;;1.20;;
18146;SDS011;9199;48.832;9.182;2024-03-25T11:35:20;4.10;;;1.17;;
18146;SDS011;9199;48.832;9.182;2024-03-25T11:37:49;4.87;;;1.40;;
18146;SDS011;9199;48.832;9.182;2024-03-25T11:40:15;4.65;;;1.25;;
18146;SDS011;9199;48.832;9.182;2024-03-25T11:42:41;2.95;;;1.17;;
18146;SDS011;9199;48.832;9.182;2024-03-25T11:45:12;4.20;;;1.40;;
18146;SDS011;9199;48.832;9.182;2024-03-25T11:47:40;3.63;;;1.30;;
18146;SDS011;9199;48.832;9.182;2024-03-25T11:50:09;3.70;;;1.30;;
18146;SDS011;9199;48.832;9.182;2024-03-25T11:52:42;5.20;;;1.50;;
18146;SDS011;9199;48.832;9.182;2024-03-25T11:55:08;3.22;;;1.30;;
18146;SDS011;9199;48.832;9.182;2024-03-25T11:57:35;4.13;;;1.42;;
18146;SDS011;9199;48.832;9.182;2024-03-25T12:00:01;6.95;;;1.50;;
18146;SDS011;9199;48.832;9.182;2024-03-25T12:02:28;4.87;;;1.40;;
18146;SDS011;9199;48.832;9.182;2024-03-25T12:04:54;3.60;;;1.50;;
18146;SDS011;9199;48.832;9.182;2024-03-25T12:07:21;4.45;;;1.40;;
18146;SDS011;9199;48.832;9.182;2024-03-25T12:09:47;5.82;;;1.35;;
18146;SDS011;9199;48.832;9.182;2024-03-25T12:12:32;4.57;;;1.57;;
18146;SDS011;9199;48.832;9.182;2024-03-25T12:14:58;8.68;;;2.00;;
18146;SDS011;9199;48.832;9.182;2024-03-25T12:17:24;4.20;;;1.40;;
18146;SDS011;9199;48.832;9.182;2024-03-25T12:20:01;5.00;;;1.40;;
18146;SDS011;9199;48.832;9.182;2024-03-25T12:22:30;3.53;;;1.17;;
18146;SDS011;9199;48.832;9.182;2024-03-25T12:24:57;4.47;;;1.30;;
18146;SDS011;9199;48.832;9.182;2024-03-25T12:27:24;3.42;;;1.40;;
18146;SDS011;9199;48.832;9.182;2024-03-25T12:29:56;4.53;;;1.67;;
18146;SDS011;9199;48.832;9.182;2024-03-25T12:32:30;6.00;;;1.77;;
18146;SDS011;9199;48.832;9.182;2024-03-25T12:34:57;4.65;;;1.35;;
18146;SDS011;9199;48.832;9.182;2024-03-25T12:37:23;4.20;;;1.50;;
18146;SDS011;9199;48.832;9.182;2024-03-25T12:39:53;5.15;;;1.90;;
18146;SDS011;9199;48.832;9.182;2024-03-25T12:42:18;4.45;;;1.50;;
18146;SDS011;9199;48.832;9.182;2024-03-25T12:44:45;3.88;;;1.58;;
18146;SDS011;9199;48.832;9.182;2024-03-25T12:47:11;3.40;;;1.35;;
18146;SDS011;9199;48.832;9.182;2024-03-25T12:49:37;4.73;;;1.50;;
18146;SDS011;9199;48.832;9.182;2024-03-25T12:52:04;4.28;;;1.50;;
18146;SDS011;9199;48.832;9.182;2024-03-25T12:54:31;3.72;;;1.40;;
18146;SDS011;9199;48.832;9.182;2024-03-25T12:56:59;4.53;;;1.52;;
18146;SDS011;9199;48.832;9.182;2024-03-25T12:59:25;4.33;;;1.50;;
18146;SDS011;9199;48.832;9.182;2024-03-25T13:01:51;4.95;;;1.70;;
18146;SDS011;9199;48.832;9.182;2024-03-25T13:04:17;4.35;;;1.42;;
18146;SDS011;9199;48.832;9.182;2024-03-25T13:06:43;4.55;;;1.70;;
18146;SDS011;9199;48.832;9.182;2024-03-25T13:09:09;4.43;;;1.67;;
18146;SDS011;9199;48.832;9.182;2024-03-25T13:11:35;5.97;;;1.60;;
18146;SDS011;9199;48.832;9.182;2024-03-25T13:14:04;4.93;;;2.05;;
18146;SDS011;9199;48.832;9.182;2024-03-25T13:16:31;7.50;;;1.50;;
18146;SDS011;9199;48.832;9.182;2024-03-25T13:18:57;4.97;;;1.50;;
18146;SDS011;9199;48.832;9.182;2024-03-25T13:21:23;3.83;;;1.40;;
18146;SDS011;9199;48.832;9.182;2024-03-25T13:23:50;4.30;;;1.60;;
18146;SDS011;9199;48.832;9.182;2024-03-25T13:26:15;5.80;;;1.65;;
18146;SDS011;9199;48.832;9.182;2024-03-25T13:28:41;5.63;;;1.90;;
18146;SDS011;9199;48.832;9.182;2024-03-25T13:31:08;4.68;;;1.40;;
18146;SDS011;9199;48.832;9.182;2024-03-25T13:33:34;3.97;;;1.58;;
18146;SDS011;9199;48.832;9.182;2024-03-25T13:36:01;4.13;;;1.53;;
18146;SDS011;9199;48.832;9.182;2024-03-25T13:38:27;4.03;;;1.50;;
18146;SDS011;9199;48.832;9.182;2024-03-25T13:40:59;3.50;;;1.70;;
18146;SDS011;9199;48.832;9.182;2024-03-25T13:43:27;5.82;;;1.67;;
18146;SDS011;9199;48.832;9.182;2024-03-25T13:45:53;5.43;;;1.60;;
18146;SDS011;9199;48.832;9.182;2024-03-25T13:48:20;3.37;;;1.23;;
18146;SDS011;9199;48.832;9.182;2024-03-25T13:50:46;3.78;;;1.40;;
18146;SDS011;9199;48.832;9.182;2024-03-25T13:53:13;3.40;;;1.30;;
18146;SDS011;9199;48.832;9.182;2024-03-25T13:55:39;4.97;;;1.70;;
18146;SDS011;9199;48.832;9.182;2024-03-25T13:58:08;5.07;;;1.90;;
18146;SDS011;9199;48.832;9.182;2024-03-25T14:00:35;6.57;;;1.50;;
18146;SDS011;9199;48.832;9.182;2024-03-25T14:03:01;3.60;;;1.30;;
18146;SDS011;9199;48.832;9.182;2024-03-25T14:05:28;4.80;;;1.75;;
18146;SDS011;9199;48.832;9.182;2024-03-25T14:07:55;3.80;;;1.45;;
18146;SDS011;9199;48.832;9.182;2024-03-25T14:10:22;5.13;;;1.60;;
18146;SDS011;9199;48.832;9.182;2024-03-25T14:12:48;3.67;;;1.63;;
18146;SDS011;9199;48.832;9.182;2024-03-25T14:15:14;4.45;;;1.40;;
18146;SDS011;9199;48.832;9.182;2024-03-25T14:17:43;4.45;;;1.60;;
18146;SDS011;9199;48.832;9.182;2024-03-25T14:20:09;4.00;;;1.53;;
18146;SDS011;9199;48.832;9.182;2024-03-25T14:22:37;4.18;;;1.30;;
18146;SDS011;9199;48.832;9.182;2024-03-25T14:25:03;3.70;;;1.40;;
18146;SDS011;9199;48.832;9.182;2024-03-25T14:27:30;5.53;;;1.50;;
18146;SDS011;9199;48.832;9.182;2024-03-25T14:29:56;3.45;;;1.30;;
18146;SDS011;9199;48.832;9.182;2024-03-25T14:32:24;4.13;;;1.50;;
18146;SDS011;9199;48.832;9.182;2024-03-25T14:34:50;3.95;;;1.40;;
18146;SDS011;9199;48.832;9.182;2024-03-25T14:37:16;4.00;;;1.23;;
18146;SDS011;9199;48.832;9.182;2024-03-25T14:39:49;4.43;;;1.48;;
18146;SDS011;9199;48.832;9.182;2024-03-25T14:42:18;4.40;;;1.50;;
18146;SDS011;9199;48.832;9.182;2024-03-25T14:44:43;7.07;;;1.60;;
18146;SDS011;9199;48.832;9.182;2024-03-25T14:47:15;4.82;;;1.50;;
18146;SDS011;9199;48.832;9.182;2024-03-25T14:49:41;4.05;;;1.27;;
18146;SDS011;9199;48.832;9.182;2024-03-25T14:52:07;4.20;;;1.50;;
18146;SDS011;9199;48.832;9.182;2024-03-25T14:54:38;3.63;;;1.20;;
18146;SDS011;9199;48.832;9.182;2024-03-25T14:57:06;4.38;;;1.50;;
18146;SDS011;9199;48.832;9.182;2024-03-25T14:59:32;4.60;;;1.35;;
18146;SDS011;9199;48.832;9.182;2024-03-25T15:01:58;2.93;;;1.13;;